createdAt,value
2019-03-09T00:00:06.835Z,4.43
2019-03-09T00:06:01.855Z,3.94
2019-03-09T00:11:56.875Z,3.44
2019-03-09T00:17:51.894Z,3.16
2019-03-09T00:23:46.898Z,3.34
2019-03-09T00:29:41.854Z,3.54
2019-03-09T00:35:36.856Z,4.28
2019-03-09T00:41:31.870Z,3.87
2019-03-09T00:47:26.872Z,3.93
2019-03-09T00:53:21.907Z,3.73
2019-03-09T00:59:16.881Z,4.63
2019-03-09T01:05:11.869Z,3.37
2019-03-09T01:11:06.881Z,4.62
2019-03-09T01:17:01.879Z,4.2
2019-03-09T01:22:56.892Z,3.45
2019-03-09T01:28:51.911Z,6.42
2019-03-09T01:34:46.904Z,4.57
2019-03-09T01:40:41.897Z,4.11
2019-03-09T01:46:36.885Z,9.92
2019-03-09T01:52:31.950Z,8.71
2019-03-09T01:58:26.920Z,9.3
2019-03-09T02:04:21.924Z,4.75
2019-03-09T02:10:16.904Z,6
2019-03-09T02:16:11.938Z,5.1
2019-03-09T02:22:06.948Z,4.6
2019-03-09T02:28:01.909Z,4.57
2019-03-09T02:33:56.980Z,4.47
2019-03-09T02:39:51.962Z,3.61
2019-03-09T02:45:46.962Z,2.9
2019-03-09T02:51:42.027Z,3.73
2019-03-09T02:57:36.913Z,3.99
2019-03-09T03:03:31.930Z,4.71
2019-03-09T03:09:26.970Z,4.13
2019-03-09T03:15:21.934Z,3.33
2019-03-09T03:21:16.952Z,3.66
2019-03-09T03:27:11.947Z,4.03
2019-03-09T03:33:07.027Z,3.45
2019-03-09T03:39:01.962Z,3.77
2019-03-09T03:44:56.950Z,4.14
2019-03-09T03:50:51.982Z,4.47
2019-03-09T03:56:47.466Z,5.37
2019-03-09T04:02:41.995Z,5.38
2019-03-09T04:08:36.993Z,4.91
2019-03-09T04:14:32.017Z,3.72
2019-03-09T04:20:26.976Z,3.03
2019-03-09T04:26:21.977Z,2.56
2019-03-09T04:32:17.009Z,2.66
2019-03-09T04:38:11.987Z,2.02
2019-03-09T04:44:06.983Z,2.61
2019-03-09T04:50:02.017Z,2.2
2019-03-09T04:55:57.063Z,2.41
2019-03-09T05:01:52.087Z,2.3
2019-03-09T05:07:47.029Z,2.41
2019-03-09T05:13:42.024Z,3.65
2019-03-09T05:19:37.020Z,2.86
2019-03-09T05:25:32.022Z,3.14
2019-03-09T05:31:27.050Z,2.82
2019-03-09T05:37:22.008Z,4.02
2019-03-09T05:43:17.014Z,3.76
2019-03-09T05:49:12.032Z,3.56
2019-03-09T05:55:07.051Z,3.62
2019-03-09T06:01:02.040Z,4.78
2019-03-09T06:06:57.047Z,4.21
2019-03-09T06:12:52.047Z,4.13
2019-03-09T06:18:47.054Z,5.68
2019-03-09T06:24:42.083Z,4.65
2019-03-09T06:30:37.044Z,4.73
2019-03-09T06:36:32.036Z,7.53
2019-03-09T06:42:27.059Z,8.44
2019-03-09T06:48:22.052Z,5.92
2019-03-09T06:54:17.067Z,6.17
2019-03-09T07:00:12.059Z,5.35
2019-03-09T07:06:07.109Z,5.58
2019-03-09T07:12:02.075Z,5.51
2019-03-09T07:17:57.072Z,6.39
2019-03-09T07:23:53.726Z,6.82
2019-03-09T07:29:47.123Z,6.84
2019-03-09T07:35:42.090Z,7.22
2019-03-09T07:41:37.094Z,11.8
2019-03-09T07:47:32.081Z,9.08
2019-03-09T07:53:27.114Z,7.29
2019-03-09T07:59:22.098Z,11.28
2019-03-09T08:05:17.095Z,24.12
2019-03-09T08:11:12.094Z,60.77
2019-03-09T08:17:07.093Z,31.14
2019-03-09T08:23:02.125Z,42.53
2019-03-09T08:28:57.095Z,44.8
2019-03-09T08:34:52.120Z,44.2
2019-03-09T08:40:47.110Z,18.74
2019-03-09T08:46:42.152Z,22.4
2019-03-09T08:52:37.127Z,20.84
2019-03-09T08:58:32.112Z,17.67
2019-03-09T09:04:27.156Z,13.26
2019-03-09T09:10:22.135Z,14.75
2019-03-09T09:16:17.145Z,14.73
2019-03-09T09:22:12.149Z,13.22
2019-03-09T09:28:07.177Z,13.24
2019-03-09T09:34:02.132Z,13.91
2019-03-09T09:39:57.137Z,14.73
2019-03-09T09:45:52.149Z,8.3
2019-03-09T09:51:47.150Z,7.35
2019-03-09T09:57:42.148Z,7.53
2019-03-09T10:03:37.166Z,7.7
2019-03-09T10:09:32.191Z,9.98
2019-03-09T10:15:27.163Z,10.54
2019-03-09T10:21:22.222Z,8.22
2019-03-09T10:27:17.156Z,8.07
2019-03-09T10:33:12.186Z,7.83
2019-03-09T10:39:07.232Z,9.3
2019-03-09T10:45:02.191Z,7.99
2019-03-09T10:50:57.200Z,6.72
2019-03-09T10:56:52.211Z,7.5
2019-03-09T11:02:47.215Z,7.99
2019-03-09T11:08:42.185Z,8.25
2019-03-09T11:14:37.208Z,6.74
2019-03-09T11:20:32.178Z,7.04
2019-03-09T11:26:27.182Z,6.27
2019-03-09T11:32:22.203Z,5.25
2019-03-09T11:38:17.272Z,6.8
2019-03-09T11:44:12.217Z,3.4
2019-03-09T11:50:07.213Z,3.86
2019-03-09T11:56:02.211Z,4.61
2019-03-09T12:01:57.222Z,6.28
2019-03-09T12:07:52.212Z,3.99
2019-03-09T12:13:47.239Z,5.6
2019-03-09T12:19:42.272Z,5.9
2019-03-09T12:25:37.210Z,6.41
2019-03-09T12:31:32.247Z,6.36
2019-03-09T12:37:27.314Z,5.63
2019-03-09T12:43:22.250Z,5.86
2019-03-09T12:49:17.295Z,5.96
2019-03-09T12:55:12.251Z,5.13
2019-03-09T13:01:07.262Z,4.83
2019-03-09T13:07:02.239Z,4.33
2019-03-09T13:12:57.252Z,4.8
2019-03-09T13:18:52.253Z,2.54
2019-03-09T13:24:47.271Z,2.87
2019-03-09T13:30:42.256Z,4.18
2019-03-09T13:36:37.296Z,4.19
2019-03-09T13:42:32.271Z,3.3
2019-03-09T13:48:27.282Z,4.19
2019-03-09T13:54:22.299Z,4.88
2019-03-09T14:00:17.284Z,1.8
2019-03-09T14:06:12.288Z,2.59
2019-03-09T14:12:07.317Z,3.36
2019-03-09T14:18:02.334Z,25.61
2019-03-09T14:23:57.310Z,4.22
2019-03-09T14:29:52.311Z,5.49
2019-03-09T14:35:47.287Z,24.87
2019-03-09T14:41:42.296Z,32.81
2019-03-09T14:47:37.325Z,59.32
2019-03-09T14:53:32.339Z,60.9
2019-03-09T14:59:27.330Z,102.71
2019-03-09T15:05:22.322Z,82.84
2019-03-09T15:11:17.324Z,62.47
2019-03-09T15:17:12.338Z,60.59
2019-03-09T15:23:07.318Z,60.89
2019-03-09T15:29:02.369Z,52.57
2019-03-09T15:34:57.336Z,37.35
2019-03-09T15:40:52.334Z,45.39
2019-03-09T15:46:47.344Z,45.11
2019-03-09T15:52:42.345Z,41.8
2019-03-09T15:58:37.409Z,41.33
2019-03-09T16:04:32.362Z,42.19
2019-03-09T16:10:27.375Z,34.18
2019-03-09T16:16:22.360Z,38.45
2019-03-09T16:22:17.382Z,33.58
2019-03-09T16:28:12.444Z,31.94
2019-03-09T16:34:07.356Z,34.48
2019-03-09T16:40:02.353Z,33.19
2019-03-09T16:45:57.373Z,13.62
2019-03-09T16:51:52.402Z,14.91
2019-03-09T16:57:47.389Z,12.12
2019-03-09T17:03:42.385Z,3.72
2019-03-09T17:09:37.392Z,6.83
2019-03-09T17:15:32.406Z,12.33
2019-03-09T17:21:27.405Z,3.34
2019-03-09T17:27:22.438Z,6.35
2019-03-09T17:33:17.402Z,6.62
2019-03-09T17:39:12.415Z,4.21
2019-03-09T17:45:07.428Z,2.88
2019-03-09T17:51:02.418Z,12.39
2019-03-09T17:56:57.410Z,3.01
2019-03-09T18:02:52.411Z,5.13
2019-03-09T18:08:47.429Z,7.57
2019-03-09T18:14:42.427Z,9.1
2019-03-09T18:20:37.472Z,5.13
2019-03-09T18:26:32.463Z,4.74
2019-03-09T18:32:27.402Z,4.14
2019-03-09T18:38:22.442Z,5.57
2019-03-09T18:44:17.460Z,4.76
2019-03-09T18:50:12.465Z,5.02
2019-03-09T18:56:07.487Z,5.18
2019-03-09T19:02:02.467Z,5.35
2019-03-09T19:07:57.476Z,5.15
2019-03-09T19:13:52.476Z,5.32
2019-03-09T19:19:47.466Z,6.44
2019-03-09T19:25:42.464Z,12.95
2019-03-09T19:31:37.506Z,15.02
2019-03-09T19:37:32.486Z,7.92
2019-03-09T19:43:27.458Z,7.01
2019-03-09T19:49:22.470Z,8.85
2019-03-09T19:55:17.489Z,7.01
2019-03-09T20:01:12.484Z,7.52
2019-03-09T20:07:07.493Z,13.45
2019-03-09T20:13:02.490Z,8.05
2019-03-09T20:18:57.511Z,7.76
2019-03-09T20:24:52.495Z,9.98
2019-03-09T20:30:47.522Z,11.61
2019-03-09T20:36:42.528Z,7.58
2019-03-09T20:42:37.494Z,10.1
2019-03-09T20:48:32.484Z,9.11
2019-03-09T20:54:27.512Z,11.16
2019-03-09T21:00:22.505Z,12.29
2019-03-09T21:06:17.545Z,12.28
2019-03-09T21:12:12.555Z,9.88
2019-03-09T21:18:07.532Z,11.33
2019-03-09T21:24:02.609Z,11.06
2019-03-09T21:29:57.516Z,9.72
2019-03-09T21:35:52.596Z,7.63
2019-03-09T21:41:47.543Z,10.2
2019-03-09T21:47:42.531Z,10.77
2019-03-09T21:53:37.533Z,9.64
2019-03-09T21:59:32.554Z,15.66
2019-03-09T22:05:27.538Z,11.95
2019-03-09T22:11:22.546Z,7.18
2019-03-09T22:17:17.560Z,5.83
2019-03-09T22:23:12.557Z,9.76
2019-03-09T22:29:07.596Z,6.74
2019-03-09T22:35:02.549Z,6.26
2019-03-09T22:40:57.564Z,10.16
2019-03-09T22:46:52.577Z,8.3
2019-03-09T22:52:47.564Z,7.67
2019-03-09T22:58:42.587Z,6.56
2019-03-09T23:04:37.571Z,5.96
2019-03-09T23:10:32.586Z,6.12
2019-03-09T23:16:27.581Z,5.8
2019-03-09T23:22:22.575Z,5.32
2019-03-09T23:28:17.620Z,6.11
2019-03-09T23:34:12.584Z,5.46
2019-03-09T23:40:07.590Z,5.48
2019-03-09T23:46:02.594Z,5.49
2019-03-09T23:51:57.580Z,5.17
2019-03-09T23:57:52.647Z,4.4
